Track Семёнова Олеся

Time Latitude Longitude Accuracy (66% radius in meters) Altitude (meters) Speed (km/hour) Bearing (degrees) Battery (%) GPS flag
10:08:58 55.737893 37.299006 5 178 0 11.261947631836 40 1 delete
10:08:46 55.737909 37.299007 5 168 0.57387965917587 357.25674438477 40 1 delete
10:08:34 55.737905 37.299007 5 163 0 76.195442199707 40 1 delete
10:08:22 55.737905 37.299007 5 160 0 76.195442199707 40 1 delete
10:08:10 55.737905 37.299007 10 156 0 76.195442199707 40 1 delete
10:07:58 55.737905 37.299007 5 164 0 76.195442199707 40 1 delete
10:07:46 55.737905 37.299007 5 164 0 76.195442199707 40 1 delete
10:07:34 55.737905 37.299007 10 171 0 76.195442199707 40 1 delete
10:07:22 55.737905 37.299007 5 173 0 76.195442199707 40 1 delete
10:07:10 55.737905 37.299007 5 173 0 76.195442199707 40 1 delete
10:06:58 55.737905 37.299007 10 172 0 76.195442199707 40 1 delete
10:06:46 55.737905 37.299007 5 171 0 76.195442199707 40 1 delete
10:06:34 55.737905 37.299007 10 170 0 76.195442199707 40 1 delete
10:06:22 55.737905 37.299007 15 173 0 76.195442199707 40 1 delete
10:06:11 55.737907 37.299001 10 176 0 76.195442199707 40 1 delete
10:05:58 55.737907 37.299001 5 181 0 76.195442199707 40 1 delete
10:05:46 55.737907 37.299001 5 169 0 76.195442199707 40 1 delete
10:05:34 55.737907 37.299001 10 163 0 76.195442199707 40 1 delete
10:05:22 55.737887 37.299033 10 174 0 76.195442199707 40 1 delete
10:05:10 55.737887 37.299033 10 179 0 76.195442199707 40 1 delete
10:04:58 55.737887 37.299033 10 179 0 76.195442199707 40 1 delete
10:04:46 55.737887 37.299033 5 173 0 76.195442199707 40 1 delete
10:04:34 55.737887 37.299025 5 173 0 16.212118148804 40 1 delete
10:04:22 55.737883 37.299024 10 171 0 353.97543334961 40 1 delete
10:04:11 55.737883 37.299024 10 174 0 353.97543334961 40 1 delete
10:03:59 55.737883 37.299024 5 177 0 353.97543334961 40 1 delete
10:03:47 55.737879 37.299025 5 179 0 179.84930419922 40 1 delete
10:03:35 55.737879 37.299025 5 174 0 179.84930419922 40 1 delete
10:03:23 55.737879 37.299025 5 175 0 179.84930419922 40 1 delete
10:03:11 55.737879 37.299025 5 172 0 179.84930419922 40 1 delete
10:02:59 55.737879 37.299023 5 170 0 179.84930419922 40 1 delete
10:02:48 55.737879 37.299021 5 171 0 179.84930419922 40 1 delete
10:02:36 55.737880 37.299021 10 169 0 179.84930419922 40 1 delete
10:02:24 55.737883 37.299019 5 163 0 179.84930419922 40 1 delete
10:02:12 55.737889 37.299018 5 167 0 183.2159576416 40 1 delete
10:02:00 55.737892 37.299026 10 166 0 197.28768920898 40 1 delete
10:01:48 55.737892 37.299026 5 174 0 197.28768920898 40 1 delete
10:01:37 55.737892 37.299029 5 181 0 197.28768920898 40 1 delete
10:01:24 55.737891 37.299029 5 171 0 197.28768920898 40 1 delete
10:01:12 55.737890 37.299032 5 183 0 356.70306396484 40 1 delete
10:01:00 55.737879 37.299033 5 184 0 20.414461135864 40 1 delete
10:00:48 55.737879 37.299033 5 176 0 20.414461135864 40 1 delete
10:00:36 55.737883 37.299035 5 170 0 20.414461135864 40 1 delete
10:00:24 55.737885 37.299024 10 174 0 347.0412902832 40 1 delete
10:00:10 55.737886 37.299026 5 170 0 347.0412902832 40 1 delete
09:59:58 55.737903 37.299023 5 167 0 347.0412902832 40 1 delete
09:59:46 55.737906 37.299019 5 173 0 347.0412902832 40 1 delete
09:59:33 55.737906 37.299019 5 177 0 347.0412902832 40 1 delete
09:59:17 55.737907 37.299019 5 176 0 347.0412902832 40 1 delete
09:59:05 55.737907 37.299019 10 176 0 347.0412902832 40 1 delete